Time;durP1;ratioP1;P1;durP2;ratioP2;P2;SDS_P1;SDS_P2;PMS_P1;PMS_P2;Temp;Humidity;BMP_temperature;BMP_pressure;BME280_temperature;BME280_humidity;BME280_pressure;Samples;Min_cycle;Max_cycle;Signal;HPM_P1;HPM_P2
2022/04/15 00:02:01;;;;;;;31.80;21.08;;;;;;;8.32;91.38;102433.44;5115639;28;20110;-73
2022/04/15 00:04:27;;;;;;;33.92;22.60;;;;;;;8.28;90.54;102431.69;5115312;28;20023;-73
2022/04/15 00:06:52;;;;;;;32.78;22.45;;;;;;;8.25;90.88;102437.72;5112843;28;20467;-73
2022/04/15 00:09:17;;;;;;;31.77;20.58;;;;;;;8.13;90.85;102437.56;5112685;28;20383;-74
2022/04/15 00:11:44;;;;;;;31.50;20.48;;;;;;;8.06;91.22;102433.16;5112584;28;20108;-73
2022/04/15 00:14:10;;;;;;;35.65;21.52;;;;;;;8.00;91.82;102425.28;5114775;28;20023;-73
2022/04/15 00:16:35;;;;;;;34.55;21.02;;;;;;;7.86;91.93;102423.38;5110514;28;20035;-73
2022/04/15 00:19:01;;;;;;;27.42;19.33;;;;;;;7.84;92.04;102414.69;5115317;28;20030;-74
2022/04/15 00:21:26;;;;;;;31.90;20.40;;;;;;;7.74;92.32;102418.88;5105511;28;20028;-73
2022/04/15 00:23:56;;;;;;;32.20;20.67;;;;;;;7.73;92.15;102426.66;5099874;28;20455;-73
2022/04/15 00:26:21;;;;;;;30.48;20.55;;;;;;;7.67;92.00;102431.78;5097618;28;20047;-73
2022/04/15 00:28:47;;;;;;;31.20;20.10;;;;;;;7.61;92.46;102435.13;5113410;28;20059;-73
2022/04/15 00:31:12;;;;;;;31.83;19.83;;;;;;;7.50;92.41;102440.19;5111535;28;20024;-73
2022/04/15 00:33:37;;;;;;;27.63;20.13;;;;;;;7.36;92.43;102425.28;5094140;28;20089;-73
2022/04/15 00:36:03;;;;;;;30.70;20.05;;;;;;;7.35;92.82;102444.25;5096674;28;20028;-73
2022/04/15 00:38:28;;;;;;;30.92;20.33;;;;;;;7.31;92.61;102442.47;5114587;28;20028;-73
2022/04/15 00:40:53;;;;;;;36.38;20.63;;;;;;;7.26;92.98;102450.19;5112973;28;20038;-73
2022/04/15 00:43:18;;;;;;;33.00;19.88;;;;;;;7.24;92.85;102447.56;5114056;28;20027;-73
2022/04/15 00:45:44;;;;;;;31.90;20.70;;;;;;;7.19;92.99;102453.53;5113049;28;20028;-73
2022/04/15 00:48:11;;;;;;;34.58;20.30;;;;;;;7.10;93.48;102448.22;5113901;28;20040;-73
2022/04/15 00:50:36;;;;;;;31.25;20.70;;;;;;;7.05;93.06;102455.91;5112144;28;20032;-73
2022/04/15 00:53:08;;;;;;;35.78;21.00;;;;;;;7.02;93.28;102461.03;5098358;27;20398;-73
2022/04/15 00:55:34;;;;;;;33.15;20.30;;;;;;;7.00;93.35;102466.19;5092668;28;20377;-73
2022/04/15 00:58:01;;;;;;;32.85;21.00;;;;;;;6.96;93.58;102448.81;5107845;28;20043;-73
2022/04/15 01:00:28;;;;;;;32.80;20.67;;;;;;;6.93;93.62;102456.56;5113333;28;20027;-73
2022/04/15 01:02:57;;;;;;;29.33;20.23;;;;;;;6.90;93.80;102461.72;5111180;28;20028;-73
2022/04/15 01:05:23;;;;;;;34.42;20.40;;;;;;;6.88;93.93;102463.38;5104672;28;20076;-73
2022/04/15 01:07:52;;;;;;;34.83;21.50;;;;;;;6.86;93.89;102448.66;5111739;28;20049;-73
2022/04/15 01:10:19;;;;;;;31.15;19.30;;;;;;;6.92;93.48;102464.31;5113381;28;20486;-73
2022/04/15 01:12:56;;;;;;;34.17;18.63;;;;;;;6.83;93.42;102456.38;5101510;28;20073;-73
2022/04/15 01:15:24;;;;;;;28.80;20.27;;;;;;;6.78;93.72;102459.75;5093882;28;20016;-73
2022/04/15 01:17:50;;;;;;;35.72;20.60;;;;;;;6.76;93.22;102460.56;5098754;28;20031;-73
2022/04/15 01:20:15;;;;;;;30.48;20.38;;;;;;;6.67;93.45;102457.81;5107137;28;20046;-73
2022/04/15 01:22:45;;;;;;;29.80;20.80;;;;;;;6.65;94.01;102469.88;5113055;28;20032;-73
2022/04/15 01:25:13;;;;;;;31.77;19.75;;;;;;;6.57;93.90;102469.72;5113633;28;20036;-73
2022/04/15 01:27:41;;;;;;;31.05;19.88;;;;;;;6.54;94.08;102472.28;5109685;28;20107;-73
2022/04/15 01:30:12;;;;;;;30.33;20.83;;;;;;;6.56;94.43;102470.56;5113524;28;20391;-73
2022/04/15 01:32:37;;;;;;;32.20;20.45;;;;;;;6.57;93.95;102474.91;5112835;28;20031;-73
2022/04/15 01:35:06;;;;;;;33.58;21.25;;;;;;;6.53;94.15;102480.88;5113460;28;20019;-73
2022/04/15 01:37:32;;;;;;;32.28;20.90;;;;;;;6.44;94.05;102475.50;5110138;28;20039;-73
2022/04/15 01:39:57;;;;;;;34.88;21.23;;;;;;;6.38;94.83;102475.41;5113695;28;20028;-73
2022/04/15 01:42:23;;;;;;;31.05;20.80;;;;;;;6.37;94.92;102474.50;5113681;28;20110;-73
2022/04/15 01:44:49;;;;;;;32.88;20.98;;;;;;;6.40;95.27;102471.13;5112384;28;20027;-73
2022/04/15 01:47:16;;;;;;;33.85;21.45;;;;;;;6.44;95.05;102475.50;5110712;28;20485;-73
2022/04/15 01:49:42;;;;;;;34.05;21.30;;;;;;;6.43;94.89;102481.53;5112596;28;20387;-73
2022/04/15 01:52:07;;;;;;;32.38;20.80;;;;;;;6.43;94.72;102473.78;5110346;28;20044;-73
2022/04/15 01:54:32;;;;;;;35.33;20.42;;;;;;;6.41;95.05;102485.81;5112820;28;20035;-73
2022/04/15 01:56:58;;;;;;;31.33;20.98;;;;;;;6.40;94.63;102481.47;5111383;28;20024;-73
2022/04/15 01:59:24;;;;;;;30.30;20.77;;;;;;;6.39;95.12;102482.34;5112536;28;20058;-73
2022/04/15 02:01:54;;;;;;;35.53;21.83;;;;;;;6.32;94.78;102489.97;5112634;28;20380;-73
2022/04/15 02:04:20;;;;;;;33.38;21.35;;;;;;;6.28;94.86;102483.00;5113122;28;20027;-73
2022/04/15 02:06:45;;;;;;;37.90;22.95;;;;;;;6.16;94.99;102480.13;5109072;28;20024;-73
2022/04/15 02:09:10;;;;;;;33.28;21.35;;;;;;;6.18;95.36;102488.81;5110681;28;20042;-73
2022/04/15 02:11:36;;;;;;;35.53;23.75;;;;;;;6.19;95.35;102487.09;5112675;28;20547;-73
2022/04/15 02:14:01;;;;;;;34.20;21.70;;;;;;;6.16;95.52;102487.91;5096536;28;20035;-73
2022/04/15 02:16:26;;;;;;;33.35;22.45;;;;;;;6.14;95.11;102489.56;5092886;28;20549;-73
2022/04/15 02:18:51;;;;;;;38.92;22.50;;;;;;;6.11;95.18;102499.88;5092055;28;20090;-73
2022/04/15 02:21:17;;;;;;;37.35;22.48;;;;;;;6.15;95.76;102500.81;5091998;28;20032;-73
2022/04/15 02:23:42;;;;;;;35.63;23.23;;;;;;;6.16;95.92;102500.84;5091689;28;20472;-73
2022/04/15 02:26:07;;;;;;;36.58;23.35;;;;;;;6.16;95.68;102506.03;5092331;28;20020;-73
2022/04/15 02:28:32;;;;;;;34.42;22.23;;;;;;;6.06;95.64;102493.75;5107019;28;20058;-73
2022/04/15 02:30:58;;;;;;;37.55;23.20;;;;;;;6.08;95.91;102504.97;5110444;28;20041;-73
2022/04/15 02:33:23;;;;;;;38.58;23.35;;;;;;;6.05;95.96;102508.41;5109698;28;20039;-73
2022/04/15 02:35:49;;;;;;;37.65;23.85;;;;;;;6.09;95.75;102504.16;5111384;28;20023;-73
2022/04/15 02:38:15;;;;;;;38.10;23.15;;;;;;;6.03;95.90;102502.31;5111220;28;20498;-74
2022/04/15 02:40:40;;;;;;;36.88;23.73;;;;;;;6.07;95.73;102508.41;5111587;28;20035;-73
2022/04/15 02:43:06;;;;;;;37.53;23.13;;;;;;;6.09;95.80;102509.34;5107221;28;20028;-73
2022/04/15 02:45:32;;;;;;;38.35;24.23;;;;;;;6.05;96.18;102508.41;5111101;28;20069;-73
2022/04/15 02:47:57;;;;;;;36.88;23.00;;;;;;;6.02;96.33;102510.94;5110276;28;20027;-73
2022/04/15 02:50:23;;;;;;;37.03;24.02;;;;;;;6.02;96.67;102508.34;5112068;28;20486;-73
2022/04/15 02:52:49;;;;;;;32.75;22.17;;;;;;;6.04;96.52;102513.53;5109669;28;20402;-73
2022/04/15 02:55:15;;;;;;;38.65;23.20;;;;;;;6.04;97.06;102511.81;5110593;28;20027;-73
2022/04/15 02:57:40;;;;;;;39.25;22.52;;;;;;;6.05;96.81;102515.31;5106343;28;20038;-73
2022/04/15 03:00:06;;;;;;;36.38;22.67;;;;;;;6.03;97.20;102511.78;5112431;28;20107;-73
2022/04/15 03:02:34;;;;;;;35.75;21.85;;;;;;;6.03;96.94;102515.25;5108630;28;20107;-73
2022/04/15 03:05:01;;;;;;;35.85;21.83;;;;;;;6.04;97.09;102508.34;5112576;28;20015;-73
2022/04/15 03:07:26;;;;;;;35.42;21.88;;;;;;;6.06;97.19;102509.28;5110722;28;20039;-73
2022/04/15 03:09:52;;;;;;;36.80;22.50;;;;;;;6.03;96.95;102498.84;5107731;28;20104;-73
2022/04/15 03:12:17;;;;;;;34.17;21.92;;;;;;;6.06;97.40;102504.97;5109712;28;20031;-74
2022/04/15 03:14:42;;;;;;;33.67;22.30;;;;;;;6.05;96.90;102512.72;5111676;28;20368;-73
2022/04/15 03:17:08;;;;;;;36.58;21.90;;;;;;;6.00;96.89;102502.25;5111504;28;20020;-73
2022/04/15 03:19:33;;;;;;;34.08;21.33;;;;;;;5.97;96.98;102502.16;5110377;28;20036;-73
2022/04/15 03:21:58;;;;;;;35.75;22.25;;;;;;;5.94;97.18;102503.81;5110866;28;20106;-73
2022/04/15 03:24:24;;;;;;;33.22;21.45;;;;;;;5.95;97.33;102505.56;5109704;28;20364;-73
2022/04/15 03:26:49;;;;;;;34.30;21.63;;;;;;;5.92;97.43;102511.53;5111674;28;20446;-73
2022/04/15 03:29:15;;;;;;;41.70;21.85;;;;;;;5.82;97.63;102507.88;5111774;28;20030;-73
2022/04/15 03:31:41;;;;;;;35.08;22.05;;;;;;;5.81;97.90;102513.84;5109429;28;20032;-73
2022/04/15 03:34:06;;;;;;;35.15;22.23;;;;;;;5.75;97.86;102518.88;5108465;28;20039;-73
2022/04/15 03:36:31;;;;;;;38.47;22.10;;;;;;;5.68;97.78;102511.81;5111388;28;20031;-73
2022/04/15 03:38:56;;;;;;;40.35;23.73;;;;;;;5.51;98.19;102503.66;5109852;28;20047;-73
2022/04/15 03:41:22;;;;;;;35.50;22.58;;;;;;;5.56;98.29;102514.16;5096946;28;20024;-73
2022/04/15 03:43:48;;;;;;;37.70;22.73;;;;;;;5.56;98.49;102521.91;5102180;28;20023;-73
2022/04/15 03:46:13;;;;;;;36.95;22.85;;;;;;;5.58;98.25;102530.56;5111474;28;20053;-73
2022/04/15 03:48:39;;;;;;;37.25;22.65;;;;;;;5.58;98.62;102525.38;5107574;28;20107;-73
2022/04/15 03:51:04;;;;;;;37.28;22.98;;;;;;;5.55;98.59;102515.84;5110824;28;20044;-73
2022/04/15 03:53:30;;;;;;;43.95;23.92;;;;;;;5.55;98.44;102523.59;5101296;28;20020;-73
2022/04/15 03:55:55;;;;;;;38.92;23.05;;;;;;;5.51;98.55;102533.84;5091644;28;20077;-73
2022/04/15 03:58:21;;;;;;;37.42;23.48;;;;;;;5.49;98.70;102533.78;5090959;28;20024;-73
2022/04/15 04:00:46;;;;;;;36.58;23.17;;;;;;;5.54;98.98;102539.97;5096691;28;20035;-73
2022/04/15 04:03:13;;;;;;;36.33;22.77;;;;;;;5.60;99.18;102539.25;5110675;28;20019;-73
2022/04/15 04:05:39;;;;;;;35.88;22.50;;;;;;;5.71;99.73;102548.13;5114314;28;20076;-73
2022/04/15 04:08:05;;;;;;;40.78;23.58;;;;;;;5.81;99.93;102539.72;5098678;28;20028;-73
2022/04/15 04:10:30;;;;;;;38.45;22.23;;;;;;;5.89;99.20;102541.66;5094369;28;20081;-73
2022/04/15 04:12:55;;;;;;;34.83;22.67;;;;;;;5.98;99.49;102539.28;5112765;28;20023;-73
2022/04/15 04:15:20;;;;;;;39.78;24.05;;;;;;;6.04;100.00;102548.06;5115201;28;20034;-73
2022/04/15 04:17:46;;;;;;;40.28;23.05;;;;;;;6.13;100.00;102536.19;5113703;28;20031;-73
2022/04/15 04:20:12;;;;;;;44.65;25.80;;;;;;;6.24;100.00;102545.03;5114632;28;20027;-73
2022/04/15 04:22:38;;;;;;;44.25;25.85;;;;;;;6.34;100.00;102541.78;5111308;28;20035;-73
2022/04/15 04:25:08;;;;;;;45.83;26.35;;;;;;;6.45;100.00;102544.63;5113571;28;20034;-73
2022/04/15 04:27:34;;;;;;;50.17;28.52;;;;;;;6.59;100.00;102550.97;5110765;28;20471;-73
2022/04/15 04:29:59;;;;;;;56.97;29.90;;;;;;;6.70;100.00;102545.97;5093983;28;20028;-74
2022/04/15 04:32:24;;;;;;;75.53;27.88;;;;;;;6.75;100.00;102549.56;5106737;28;20042;-73
2022/04/15 04:34:49;;;;;;;56.60;26.50;;;;;;;6.74;100.00;102548.69;5098507;28;20032;-73
2022/04/15 04:37:15;;;;;;;47.90;24.90;;;;;;;6.77;100.00;102553.94;5114383;28;20032;-72
2022/04/15 04:39:40;;;;;;;39.03;24.55;;;;;;;6.71;100.00;102548.63;5114026;28;20384;-73
2022/04/15 04:42:06;;;;;;;59.80;24.88;;;;;;;6.77;100.00;102563.44;5113254;27;20023;-73
2022/04/15 04:44:33;;;;;;;40.70;25.17;;;;;;;6.80;100.00;102561.78;5110468;28;20032;-73
2022/04/15 04:46:59;;;;;;;43.53;22.40;;;;;;;6.84;100.00;102572.19;5114453;27;20019;-73
2022/04/15 04:49:25;;;;;;;66.78;23.20;;;;;;;6.78;100.00;102573.81;5114215;28;20470;-73
2022/04/15 04:51:50;;;;;;;44.90;23.35;;;;;;;6.76;100.00;102572.91;5110896;28;20527;-73
2022/04/15 04:54:16;;;;;;;60.25;23.25;;;;;;;6.80;100.00;102584.19;5110789;28;20425;-73
2022/04/15 04:56:42;;;;;;;39.50;22.90;;;;;;;6.83;100.00;102575.63;5113302;28;20059;-73
2022/04/15 04:59:07;;;;;;;36.88;24.30;;;;;;;6.89;100.00;102580.94;5112479;28;20023;-73
2022/04/15 05:01:32;;;;;;;46.05;22.73;;;;;;;6.91;100.00;102587.03;5113007;27;20106;-73
2022/04/15 05:03:57;;;;;;;46.25;22.17;;;;;;;6.91;100.00;102584.44;5112221;28;20035;-73
2022/04/15 05:06:23;;;;;;;32.00;21.90;;;;;;;6.92;100.00;102594.81;5114189;28;20027;-73
2022/04/15 05:08:48;;;;;;;40.15;21.75;;;;;;;6.90;100.00;102590.44;5102617;28;20104;-73
2022/04/15 05:11:13;;;;;;;31.45;19.70;;;;;;;6.94;100.00;102592.28;5114211;28;20048;-73
2022/04/15 05:13:39;;;;;;;39.05;19.35;;;;;;;6.94;100.00;102600.91;5110463;28;20383;-73
2022/04/15 05:16:04;;;;;;;30.23;20.23;;;;;;;6.95;100.00;102607.84;5113344;28;20027;-73
2022/04/15 05:18:29;;;;;;;29.65;19.17;;;;;;;6.94;100.00;102600.06;5112255;28;20052;-73
2022/04/15 05:20:55;;;;;;;27.67;18.50;;;;;;;6.98;100.00;102605.31;5113039;28;20039;-73
2022/04/15 05:23:20;;;;;;;28.95;16.08;;;;;;;7.01;100.00;102620.94;5111525;28;20031;-73
2022/04/15 05:25:45;;;;;;;34.38;17.05;;;;;;;6.96;100.00;102621.69;5113168;28;20035;-73
2022/04/15 05:28:11;;;;;;;25.50;16.70;;;;;;;6.98;100.00;102626.06;5112671;28;20039;-73
2022/04/15 05:30:36;;;;;;;36.00;16.75;;;;;;;6.99;100.00;102632.13;5112427;28;20028;-73
2022/04/15 05:33:01;;;;;;;25.90;17.83;;;;;;;7.01;100.00;102633.03;5109606;28;20024;-73
2022/04/15 05:35:26;;;;;;;27.00;17.35;;;;;;;7.06;100.00;102639.16;5109490;28;20097;-73
2022/04/15 05:37:52;;;;;;;53.53;17.95;;;;;;;7.03;100.00;102640.00;5111841;28;20043;-73
2022/04/15 05:40:17;;;;;;;25.65;17.50;;;;;;;7.05;100.00;102647.81;5112975;28;20053;-73
2022/04/15 05:42:42;;;;;;;26.90;18.10;;;;;;;7.08;100.00;102645.28;5109470;28;20027;-73
2022/04/15 05:45:08;;;;;;;40.22;19.65;;;;;;;7.12;100.00;102648.78;5110893;28;20364;-73
2022/04/15 05:47:33;;;;;;;30.17;19.23;;;;;;;7.08;100.00;102653.06;5113188;28;20042;-73
2022/04/15 05:49:58;;;;;;;30.92;20.67;;;;;;;7.09;100.00;102654.78;5113294;28;20063;-73
2022/04/15 05:52:24;;;;;;;31.65;19.95;;;;;;;7.16;100.00;102664.47;5111445;28;20126;-74
2022/04/15 05:54:49;;;;;;;30.00;19.98;;;;;;;7.20;100.00;102668.00;5112732;28;20451;-73
2022/04/15 05:57:14;;;;;;;30.25;19.80;;;;;;;7.27;100.00;102668.13;5111850;28;20031;-73
2022/04/15 05:59:41;;;;;;;31.67;19.02;;;;;;;7.30;100.00;102669.06;5112046;28;20024;-73
2022/04/15 06:02:06;;;;;;;28.20;17.27;;;;;;;7.33;100.00;102677.75;5111967;28;20027;-74
2022/04/15 06:04:32;;;;;;;23.90;16.10;;;;;;;7.35;100.00;102677.78;5112540;28;20083;-73
2022/04/15 06:06:57;;;;;;;29.17;16.90;;;;;;;7.35;100.00;102683.84;5112721;28;20027;-73
2022/04/15 06:09:22;;;;;;;30.55;16.90;;;;;;;7.36;100.00;102683.00;5110649;28;20447;-73
2022/04/15 06:11:52;;;;;;;27.67;17.13;;;;;;;7.36;100.00;102685.59;5106917;28;20031;-73
2022/04/15 06:14:18;;;;;;;36.10;17.85;;;;;;;7.31;100.00;102683.75;5112966;28;20016;-73
2022/04/15 06:16:45;;;;;;;26.17;18.15;;;;;;;7.36;100.00;102690.78;5112442;28;20030;-73
2022/04/15 06:19:10;;;;;;;32.00;19.10;;;;;;;7.43;100.00;102691.78;5112301;28;20030;-73
2022/04/15 06:21:35;;;;;;;33.95;18.27;;;;;;;7.44;100.00;102685.75;5110894;28;20024;-73
2022/04/15 06:24:00;;;;;;;32.22;18.95;;;;;;;7.41;100.00;102685.69;5111652;28;20031;-73
2022/04/15 06:26:26;;;;;;;30.30;19.27;;;;;;;7.44;100.00;102701.31;5112167;28;20027;-73
2022/04/15 06:28:51;;;;;;;28.00;17.98;;;;;;;7.46;100.00;102702.22;5112195;28;20490;-73
2022/04/15 06:31:16;;;;;;;30.00;18.90;;;;;;;7.48;100.00;102695.31;5110866;28;20020;-73
2022/04/15 06:33:42;;;;;;;32.45;20.27;;;;;;;7.48;100.00;102703.97;5102829;28;20371;-73
2022/04/15 06:36:07;;;;;;;33.85;20.08;;;;;;;7.53;100.00;102711.88;5106627;28;20413;-73
2022/04/15 06:38:32;;;;;;;30.75;19.00;;;;;;;7.53;100.00;102706.69;5107005;28;20027;-73
2022/04/15 06:40:58;;;;;;;31.45;20.83;;;;;;;7.55;100.00;102701.50;5110052;28;20032;-73
2022/04/15 06:43:23;;;;;;;30.67;18.33;;;;;;;7.61;100.00;102720.66;5093924;28;20055;-73
2022/04/15 06:45:48;;;;;;;28.95;18.58;;;;;;;7.66;100.00;102720.78;5091554;28;20601;-73
2022/04/15 06:48:14;;;;;;;27.95;18.50;;;;;;;7.65;100.00;102714.72;5091755;28;20024;-73
2022/04/15 06:50:39;;;;;;;31.55;19.15;;;;;;;7.70;100.00;102726.03;5091528;28;20024;-74
2022/04/15 06:53:04;;;;;;;33.40;19.17;;;;;;;7.75;100.00;102718.34;5108759;28;20023;-73
2022/04/15 06:55:30;;;;;;;31.33;19.15;;;;;;;7.80;100.00;102724.47;5111672;28;20408;-73
2022/04/15 06:57:55;;;;;;;33.00;19.50;;;;;;;7.82;100.00;102728.00;5112426;28;20019;-73
2022/04/15 07:00:21;;;;;;;29.60;18.25;;;;;;;7.89;100.00;102723.78;5112092;28;20016;-73
2022/04/15 07:02:46;;;;;;;32.03;18.95;;;;;;;7.97;100.00;102727.38;5095808;28;20054;-74
2022/04/15 07:05:12;;;;;;;27.33;18.70;;;;;;;7.96;100.00;102725.63;5092000;28;20138;-74
2022/04/15 07:07:38;;;;;;;28.70;17.63;;;;;;;8.04;100.00;102731.81;5100978;28;20028;-73
2022/04/15 07:10:08;;;;;;;29.25;17.67;;;;;;;8.00;100.00;102723.97;5111679;28;20472;-73
2022/04/15 07:12:33;;;;;;;29.85;19.20;;;;;;;8.05;100.00;102731.00;5108007;28;20026;-74
2022/04/15 07:14:59;;;;;;;31.10;18.15;;;;;;;8.08;100.00;102733.66;5111802;28;20024;-74
2022/04/15 07:17:24;;;;;;;30.75;18.15;;;;;;;8.14;100.00;102730.25;5103009;28;20055;-73
2022/04/15 07:19:50;;;;;;;32.92;18.15;;;;;;;8.21;100.00;102734.72;5091433;28;20036;-73
2022/04/15 07:22:19;;;;;;;30.33;18.73;;;;;;;8.25;100.00;102733.06;5095078;28;20115;-73
2022/04/15 07:24:45;;;;;;;29.50;19.65;;;;;;;8.29;100.00;102735.72;5109661;28;20028;-73
2022/04/15 07:27:11;;;;;;;30.02;18.10;;;;;;;8.33;100.00;102739.22;5108467;28;20035;-74
2022/04/15 07:29:36;;;;;;;29.17;17.13;;;;;;;8.30;100.00;102742.66;5110934;28;20032;-74
2022/04/15 07:32:01;;;;;;;26.38;15.60;;;;;;;8.35;100.00;102747.94;5109645;28;20035;-73
2022/04/15 07:34:27;;;;;;;29.48;16.38;;;;;;;8.41;100.00;102743.75;5111846;28;20028;-73
2022/04/15 07:36:57;;;;;;;25.75;16.17;;;;;;;8.46;100.00;102756.81;5110647;28;20035;-73
2022/04/15 07:39:23;;;;;;;26.70;16.58;;;;;;;8.54;100.00;102754.34;5112248;28;20604;-73
2022/04/15 07:41:49;;;;;;;26.85;17.35;;;;;;;8.57;100.00;102752.66;5105790;28;20024;-73
2022/04/15 07:44:15;;;;;;;27.60;16.92;;;;;;;8.61;100.00;102748.38;5108780;28;20087;-73
2022/04/15 07:46:42;;;;;;;28.08;17.45;;;;;;;8.59;99.89;102748.34;5107351;28;20106;-73
2022/04/15 07:49:08;;;;;;;30.13;18.50;;;;;;;8.67;100.00;102748.47;5115481;28;20034;-73
2022/04/15 07:51:35;;;;;;;31.70;18.77;;;;;;;8.79;99.30;102750.38;5111632;28;20169;-73
2022/04/15 07:54:00;;;;;;;23.08;14.82;;;;;;;8.84;97.77;102751.31;5115778;28;20098;-74
2022/04/15 07:56:26;;;;;;;26.98;17.02;;;;;;;8.87;97.99;102757.44;5104764;27;20113;-73
2022/04/15 07:58:51;;;;;;;25.25;16.45;;;;;;;8.91;98.17;102755.75;5111485;28;20027;-73
2022/04/15 08:01:18;;;;;;;31.63;17.08;;;;;;;8.97;97.96;102753.22;5114626;28;20051;-74
2022/04/15 08:03:44;;;;;;;34.20;17.13;;;;;;;9.02;97.38;102756.75;5123081;27;20486;-73
2022/04/15 08:06:09;;;;;;;27.52;17.00;;;;;;;8.97;96.36;102753.22;5122743;27;20023;-73
2022/04/15 08:08:35;;;;;;;25.23;15.90;;;;;;;9.00;96.60;102747.22;5114842;28;20399;-73
2022/04/15 08:11:01;;;;;;;29.48;17.05;;;;;;;9.03;97.01;102753.31;5114078;28;20039;-74
2022/04/15 08:13:27;;;;;;;28.02;16.95;;;;;;;9.00;96.55;102748.06;5109769;28;20028;-73
2022/04/15 08:15:53;;;;;;;29.15;16.65;;;;;;;9.09;97.14;102752.50;5112954;28;20076;-73
2022/04/15 08:18:23;;;;;;;27.65;15.82;;;;;;;9.12;97.17;102758.66;5111226;27;20023;-73
2022/04/15 08:20:50;;;;;;;29.13;16.27;;;;;;;9.16;95.98;102753.50;5095731;28;20028;-73
2022/04/15 08:23:16;;;;;;;24.67;16.02;;;;;;;9.21;94.70;102757.88;5118712;27;20406;-73
2022/04/15 08:25:43;;;;;;;21.80;15.10;;;;;;;9.33;95.24;102757.16;5113783;27;20023;-73
2022/04/15 08:28:10;;;;;;;25.83;15.20;;;;;;;9.44;94.09;102762.50;5115314;27;20016;-73
2022/04/15 08:30:35;;;;;;;24.52;14.82;;;;;;;9.55;93.71;102760.91;5119053;27;20027;-73
2022/04/15 08:33:02;;;;;;;25.38;15.65;;;;;;;9.65;92.98;102752.34;5099101;28;20032;-73
2022/04/15 08:35:28;;;;;;;25.75;14.63;;;;;;;9.68;92.31;102754.97;5108972;28;20035;-73
2022/04/15 08:37:53;;;;;;;21.27;13.65;;;;;;;9.84;91.96;102756.88;5111883;28;21017;-73
2022/04/15 08:40:18;;;;;;;21.52;13.13;;;;;;;10.08;90.25;102761.44;5093840;28;20039;-73
2022/04/15 08:42:44;;;;;;;19.50;12.60;;;;;;;10.27;88.70;102746.88;5099531;28;20032;-73
2022/04/15 08:45:10;;;;;;;16.90;12.07;;;;;;;10.47;87.72;102770.50;5108554;28;20024;-73
2022/04/15 08:47:39;;;;;;;17.38;12.05;;;;;;;10.55;87.21;102768.81;5111662;28;20375;-73
2022/04/15 08:50:07;;;;;;;18.63;11.55;;;;;;;10.57;85.17;102776.66;5114934;27;20420;-74
2022/04/15 08:52:33;;;;;;;17.25;11.63;;;;;;;10.54;84.58;102776.63;5113666;27;20052;-74
2022/04/15 08:55:00;;;;;;;18.33;11.63;;;;;;;10.58;83.89;102777.53;5117317;27;20034;-73
2022/04/15 08:57:26;;;;;;;14.60;10.80;;;;;;;10.73;84.17;102778.50;5099947;28;20032;-73
2022/04/15 08:59:53;;;;;;;16.35;11.10;;;;;;;11.06;82.05;102779.59;5111930;28;20028;-73
2022/04/15 09:02:32;;;;;;;15.15;10.15;;;;;;;11.34;79.51;102774.47;5109739;28;20478;-73
2022/04/15 09:04:58;;;;;;;17.10;10.73;;;;;;;11.43;78.58;102774.53;5093890;28;20388;-74
2022/04/15 09:07:28;;;;;;;14.50;10.45;;;;;;;11.69;77.67;102783.31;5093575;28;20037;-74
2022/04/15 09:09:56;;;;;;;15.32;10.80;;;;;;;11.88;75.74;102791.25;5094823;27;20042;-73
2022/04/15 09:12:25;;;;;;;12.38;9.68;;;;;;;11.99;74.80;102784.28;5117801;27;20123;-76
2022/04/15 09:14:51;;;;;;;15.32;9.70;;;;;;;12.10;73.42;102782.56;5110051;28;20066;-73
2022/04/15 09:17:21;;;;;;;13.50;9.07;;;;;;;12.09;73.58;102791.25;5103363;28;20055;-73
2022/04/15 09:19:47;;;;;;;13.02;9.93;;;;;;;12.03;74.39;102779.94;5110714;28;20027;-75
2022/04/15 09:22:17;;;;;;;11.23;9.07;;;;;;;12.12;75.95;102790.41;5111576;28;20073;-75
2022/04/15 09:24:42;;;;;;;11.95;9.57;;;;;;;12.07;76.26;102781.69;5113432;28;20412;-73
2022/04/15 09:27:08;;;;;;;15.20;10.05;;;;;;;12.18;77.63;102793.03;5113867;28;20016;-72
2022/04/15 09:29:34;;;;;;;11.80;9.05;;;;;;;12.37;74.74;102791.31;5094011;28;20081;-73
2022/04/15 09:32:14;;;;;;;13.63;9.60;;;;;;;12.54;73.55;102794.78;5091817;28;20027;-73
2022/04/15 09:35:01;;;;;;;13.88;9.63;;;;;;;12.62;73.81;102797.38;5094266;28;20036;-74
2022/04/15 09:37:30;;;;;;;12.98;9.05;;;;;;;12.65;71.57;102792.13;5099709;28;20039;-74
2022/04/15 09:40:16;;;;;;;11.52;8.82;;;;;;;12.89;73.52;102791.25;5101383;28;20511;-74
2022/04/15 09:42:51;;;;;;;14.63;9.77;;;;;;;12.98;70.16;102790.34;5112310;28;20054;-74
2022/04/15 09:45:18;;;;;;;16.33;9.30;;;;;;;13.04;72.64;102785.97;5109020;28;20019;-74
2022/04/15 09:47:54;;;;;;;14.32;9.70;;;;;;;13.23;69.86;102791.16;5111008;28;20047;-73
2022/04/15 09:50:28;;;;;;;14.15;9.30;;;;;;;13.48;69.21;102797.22;5112777;27;20035;-73
2022/04/15 09:52:55;;;;;;;15.93;9.55;;;;;;;13.65;67.43;102797.13;5112589;28;20043;-73
2022/04/15 09:55:25;;;;;;;12.80;9.25;;;;;;;13.78;65.32;102786.56;5113278;27;20024;-74
2022/04/15 09:57:51;;;;;;;12.77;9.10;;;;;;;13.86;66.71;102793.50;5114665;27;20030;-74
2022/04/15 10:00:18;;;;;;;10.63;9.13;;;;;;;13.79;67.73;102795.28;5116701;27;20106;-74
2022/04/15 10:02:45;;;;;;;10.88;8.82;;;;;;;13.76;65.46;102792.69;5112454;28;20080;-74
2022/04/15 10:05:12;;;;;;;10.70;8.65;;;;;;;13.73;65.73;102792.69;5110460;28;20028;-74
2022/04/15 10:07:40;;;;;;;11.50;9.00;;;;;;;13.69;66.77;102799.69;5102326;28;20036;-74
2022/04/15 10:10:07;;;;;;;13.63;9.35;;;;;;;13.75;66.20;102783.09;5092584;28;20038;-74
2022/04/15 10:12:39;;;;;;;10.88;8.75;;;;;;;13.83;64.16;102786.50;5102030;28;20454;-74
2022/04/15 10:15:06;;;;;;;11.52;8.75;;;;;;;14.35;65.68;102787.91;5112012;28;20027;-74
2022/04/15 10:17:32;;;;;;;10.27;8.35;;;;;;;14.74;65.34;102782.31;5110425;28;20023;-74
2022/04/15 10:19:58;;;;;;;14.68;8.23;;;;;;;14.84;62.53;102777.84;5112686;28;20096;-74
2022/04/15 10:22:24;;;;;;;12.48;8.52;;;;;;;15.06;62.04;102781.13;5112633;28;20496;-74
2022/04/15 10:24:49;;;;;;;13.93;8.60;;;;;;;15.20;59.05;102779.22;5124675;27;20054;-74
2022/04/15 10:27:24;;;;;;;13.98;8.93;;;;;;;15.46;61.55;102773.59;5112397;28;20077;-74
2022/04/15 10:30:18;;;;;;;10.88;8.57;;;;;;;15.65;62.45;102779.47;5112078;28;20020;-74
2022/04/15 10:32:59;;;;;;;9.48;7.93;;;;;;;15.17;60.19;102783.59;5111571;28;20027;-75
2022/04/15 10:35:28;;;;;;;9.95;8.50;;;;;;;14.72;61.43;102781.47;5111998;28;20043;-74
2022/04/15 10:38:12;;;;;;;12.20;9.20;;;;;;;14.62;62.58;102779.84;5094796;28;20015;-74
2022/04/15 10:40:42;;;;;;;10.18;8.68;;;;;;;14.73;61.87;102767.47;5111633;28;20032;-74
2022/04/15 10:43:27;;;;;;;13.07;9.20;;;;;;;14.83;62.30;102780.50;5112164;28;20136;-74
2022/04/15 10:46:11;;;;;;;10.85;8.63;;;;;;;14.52;63.21;102762.44;5111993;28;20102;-74
2022/04/15 10:48:39;;;;;;;10.02;8.95;;;;;;;14.31;61.51;102770.44;5111764;28;20027;-74
2022/04/15 10:51:23;;;;;;;10.20;8.35;;;;;;;14.41;63.31;102770.34;5104364;28;20117;-74
2022/04/15 10:53:48;;;;;;;8.77;7.53;;;;;;;14.31;62.46;102776.56;5110510;28;20042;-74
2022/04/15 10:56:14;;;;;;;11.07;8.48;;;;;;;14.26;61.86;102775.75;5112876;28;20044;-75
2022/04/15 11:02:00;;;;;;;10.18;7.85;;;;;;;14.83;65.12;102764.75;5103626;28;20388;-75
2022/04/15 11:04:25;;;;;;;10.27;7.68;;;;;;;15.08;61.32;102758.34;5092255;28;20407;-74
2022/04/15 11:06:52;;;;;;;9.75;7.53;;;;;;;15.12;60.28;102762.66;5090948;28;20050;-74
2022/04/15 11:09:22;;;;;;;9.30;7.72;;;;;;;15.05;60.30;102760.13;5091589;28;20031;-74
2022/04/15 11:11:52;;;;;;;9.80;7.85;;;;;;;15.06;61.76;102770.59;5100580;28;20024;-74
2022/04/15 11:14:17;;;;;;;8.38;6.88;;;;;;;15.16;59.13;102764.34;5119290;27;20110;-74
2022/04/15 11:16:46;;;;;;;11.80;7.65;;;;;;;15.26;61.00;102753.72;5115770;28;20030;-74